createdAt,value
2022-10-24T00:04:38.508Z,53.93
2022-10-24T00:09:41.904Z,54.27
2022-10-24T00:14:45.290Z,54.23
2022-10-24T00:19:50.009Z,53.65
2022-10-24T00:24:53.560Z,53.10
2022-10-24T00:29:57.162Z,52.74
2022-10-24T00:35:01.937Z,52.60
2022-10-24T00:40:07.049Z,52.07
2022-10-24T00:45:38.681Z,52.23
2022-10-24T00:50:43.894Z,51.88
2022-10-24T00:55:49.345Z,52.54
2022-10-24T01:00:52.792Z,51.83
2022-10-24T01:06:32.977Z,51.97
2022-10-24T01:11:47.522Z,52.60
2022-10-24T01:16:53.019Z,52.25
2022-10-24T01:21:58.943Z,51.99
2022-10-24T01:27:22.342Z,52.56
2022-10-24T01:32:35.971Z,52.56
2022-10-24T01:37:43.735Z,53.19
2022-10-24T01:42:48.563Z,54.13
2022-10-24T01:47:55.784Z,54.00
2022-10-24T01:52:59.629Z,53.79
2022-10-24T01:58:03.025Z,54.87
2022-10-24T02:03:13.081Z,54.23
2022-10-24T02:08:20.059Z,54.98
2022-10-24T02:13:27.794Z,54.75
2022-10-24T02:18:33.920Z,54.41
2022-10-24T02:23:39.361Z,54.19
2022-10-24T02:28:44.728Z,54.29
2022-10-24T02:33:50.904Z,53.65
2022-10-24T02:38:55.117Z,53.90
2022-10-24T02:43:58.995Z,53.90
2022-10-24T02:49:05.198Z,53.58
2022-10-24T02:54:08.575Z,53.02
2022-10-24T02:59:12.019Z,53.42
2022-10-24T03:04:16.943Z,52.57
2022-10-24T03:09:20.383Z,52.46
2022-10-24T03:14:23.753Z,52.43
2022-10-24T03:19:28.538Z,52.53
2022-10-24T03:24:43.904Z,52.62
2022-10-24T03:29:55.450Z,52.99
2022-10-24T03:35:00.180Z,52.99
2022-10-24T03:40:03.567Z,52.66
2022-10-24T03:45:08.148Z,52.72
2022-10-24T03:50:12.963Z,53.08
2022-10-24T03:55:16.368Z,53.77
2022-10-24T04:00:20.066Z,53.45
2022-10-24T04:05:24.815Z,53.24
2022-10-24T04:10:28.571Z,53.39
2022-10-24T04:15:32.091Z,53.29
2022-10-24T04:20:36.942Z,53.71
2022-10-24T04:25:40.644Z,54.49
2022-10-24T04:35:53.991Z,53.92
2022-10-24T04:40:58.237Z,54.42
2022-10-24T04:46:02.459Z,53.81
2022-10-24T04:51:07.289Z,54.37
2022-10-24T04:56:10.673Z,53.75
2022-10-24T05:01:14.207Z,54.34
2022-10-24T05:06:18.971Z,54.89
2022-10-24T05:11:22.346Z,54.75
2022-10-24T05:16:25.970Z,54.13
2022-10-24T05:21:30.693Z,53.89
2022-10-24T05:26:34.064Z,53.25
2022-10-24T05:31:37.427Z,53.44
2022-10-24T05:36:42.281Z,53.03
2022-10-24T05:41:47.114Z,53.33
2022-10-24T05:46:50.804Z,53.37
2022-10-24T05:51:55.586Z,53.53
2022-10-24T05:56:59.833Z,53.97
2022-10-24T06:02:03.411Z,53.37
2022-10-24T06:07:08.244Z,53.55
2022-10-24T06:12:12.086Z,54.32
2022-10-24T06:17:15.465Z,53.14
2022-10-24T06:22:23.919Z,53.61
2022-10-24T06:27:27.304Z,53.21
2022-10-24T06:32:30.772Z,53.50
2022-10-24T06:37:36.351Z,52.84
2022-10-24T06:42:39.829Z,52.43
2022-10-24T06:47:43.446Z,52.31
2022-10-24T06:52:48.552Z,51.60
2022-10-24T06:57:54.059Z,51.62
2022-10-24T07:02:58.218Z,51.36
2022-10-24T07:08:03.404Z,50.96
2022-10-24T07:13:06.930Z,50.79
2022-10-24T07:18:15.852Z,50.10
2022-10-24T07:23:20.978Z,50.00
2022-10-24T07:28:24.466Z,50.60
2022-10-24T07:33:28.455Z,50.12
2022-10-24T07:38:33.370Z,50.04
2022-10-24T07:43:36.855Z,49.44
2022-10-24T07:48:42.366Z,49.03
2022-10-24T07:53:47.202Z,48.81
2022-10-24T07:58:50.724Z,48.16
2022-10-24T08:03:54.562Z,48.12
2022-10-24T08:08:59.582Z,47.40
2022-10-24T08:14:03.322Z,46.92
2022-10-24T08:19:06.747Z,46.47
2022-10-24T08:24:11.663Z,46.11
2022-10-24T08:29:21.654Z,45.16
2022-10-24T08:34:25.227Z,45.17
2022-10-24T08:39:29.985Z,44.99
2022-10-24T08:44:35.596Z,44.87
2022-10-24T08:49:43.262Z,44.74
2022-10-24T08:54:51.506Z,44.30
2022-10-24T08:59:58.891Z,43.95
2022-10-24T09:05:05.823Z,43.04
2022-10-24T09:10:16.905Z,42.34
2022-10-24T09:15:25.038Z,42.57
2022-10-24T09:20:30.424Z,42.99
2022-10-24T09:25:37.202Z,42.08
2022-10-24T09:30:40.619Z,42.06
2022-10-24T09:35:44.225Z,42.00
2022-10-24T09:40:52.098Z,41.63
2022-10-24T09:46:02.691Z,41.65
2022-10-24T09:51:06.976Z,41.08
2022-10-24T09:56:15.354Z,40.43
2022-10-24T10:01:22.634Z,41.18
2022-10-24T10:06:26.130Z,40.72
2022-10-24T10:11:35.442Z,39.67
2022-10-24T10:16:41.051Z,39.58
2022-10-24T10:21:56.847Z,39.16
2022-10-24T10:27:01.634Z,38.47
2022-10-24T10:32:11.254Z,39.04
2022-10-24T10:37:28.645Z,39.66
2022-10-24T10:42:37.488Z,39.70
2022-10-24T10:47:51.259Z,39.41
2022-10-24T10:52:56.851Z,39.25
2022-10-24T10:58:12.947Z,39.72
2022-10-24T11:03:27.691Z,38.94
2022-10-24T11:08:42.283Z,38.87
2022-10-24T11:13:51.722Z,38.82
2022-10-24T11:18:57.584Z,38.40
2022-10-24T11:24:03.803Z,38.82
2022-10-24T11:29:14.074Z,37.42
2022-10-24T11:34:21.509Z,38.01
2022-10-24T11:39:26.455Z,38.17
2022-10-24T11:44:45.006Z,37.54
2022-10-24T11:49:51.092Z,38.35
2022-10-24T11:54:59.281Z,37.84
2022-10-24T12:00:05.886Z,38.50
2022-10-24T12:05:29.865Z,37.90
2022-10-24T12:10:52.673Z,37.73
2022-10-24T12:16:01.637Z,37.22
2022-10-24T12:21:08.602Z,36.13
2022-10-24T12:26:19.712Z,37.14
2022-10-24T12:31:28.347Z,37.05
2022-10-24T12:37:08.107Z,36.50
2022-10-24T12:42:16.752Z,36.41
2022-10-24T12:47:40.753Z,36.63
2022-10-24T12:53:19.153Z,36.63
2022-10-24T12:58:24.547Z,36.07
2022-10-24T13:03:44.389Z,36.00
2022-10-24T13:09:10.010Z,36.08
2022-10-24T13:14:36.303Z,36.23
2022-10-24T13:19:41.383Z,36.61
2022-10-24T13:24:44.737Z,36.31
2022-10-24T13:30:24.093Z,36.60
2022-10-24T13:35:32.350Z,37.24
2022-10-24T13:40:38.497Z,38.14
2022-10-24T13:45:46.195Z,37.36
2022-10-24T13:50:59.726Z,37.10
2022-10-24T13:56:10.346Z,37.22
2022-10-24T14:01:20.765Z,37.63
2022-10-24T14:06:26.955Z,37.87
2022-10-24T14:11:30.668Z,37.30
2022-10-24T14:16:34.858Z,38.05
2022-10-24T14:21:42.861Z,37.95
2022-10-24T14:26:47.353Z,37.43
2022-10-24T14:31:56.463Z,38.27
2022-10-24T14:37:02.294Z,37.72
2022-10-24T14:42:05.879Z,38.30
2022-10-24T14:47:21.881Z,38.49
2022-10-24T14:52:29.424Z,38.00
2022-10-24T14:57:35.069Z,37.96
2022-10-24T15:02:42.954Z,38.36
2022-10-24T15:08:09.276Z,38.99
2022-10-24T15:13:15.016Z,38.49
2022-10-24T15:18:21.431Z,38.82
2022-10-24T15:23:28.809Z,39.47
2022-10-24T15:28:38.179Z,39.24
2022-10-24T15:33:41.798Z,39.82
2022-10-24T15:38:48.398Z,40.09
2022-10-24T15:43:51.816Z,40.82
2022-10-24T15:48:55.402Z,41.42
2022-10-24T15:54:00.193Z,41.99
2022-10-24T15:59:03.628Z,42.96
2022-10-24T16:04:08.654Z,44.12
2022-10-24T16:09:16.266Z,44.38
2022-10-24T16:14:21.690Z,44.22
2022-10-24T16:19:26.354Z,44.59
2022-10-24T16:24:31.187Z,44.67
2022-10-24T16:29:34.684Z,43.98
2022-10-24T16:34:38.074Z,44.07
2022-10-24T16:39:43.275Z,44.25
2022-10-24T16:44:46.986Z,43.43
2022-10-24T16:49:50.470Z,44.56
2022-10-24T16:54:55.637Z,44.18
2022-10-24T16:59:59.114Z,44.00
2022-10-24T17:05:02.644Z,43.60
2022-10-24T17:10:08.321Z,43.64
2022-10-24T17:15:12.510Z,44.06
2022-10-24T17:20:17.406Z,43.85
2022-10-24T17:25:24.447Z,43.48
2022-10-24T17:30:29.700Z,43.51
2022-10-24T17:35:33.987Z,43.22
2022-10-24T17:40:43.287Z,42.98
2022-10-24T17:45:47.374Z,43.25
2022-10-24T17:50:51.008Z,43.56
2022-10-24T17:55:56.026Z,44.15
2022-10-24T18:00:59.634Z,44.27
2022-10-24T18:06:05.236Z,43.66
2022-10-24T18:11:10.844Z,44.22
2022-10-24T18:16:16.571Z,44.08
2022-10-24T18:21:21.695Z,43.06
2022-10-24T18:26:28.081Z,42.86
2022-10-24T18:36:36.299Z,43.74
2022-10-24T18:41:46.502Z,44.52
2022-10-24T18:46:50.753Z,44.04
2022-10-24T18:52:04.262Z,44.18
2022-10-24T18:57:19.752Z,44.84
2022-10-24T19:02:29.634Z,44.85
2022-10-24T19:07:33.297Z,44.97
2022-10-24T19:12:38.383Z,45.51
2022-10-24T19:17:42.264Z,45.55
2022-10-24T19:22:46.429Z,45.72
2022-10-24T19:32:56.307Z,46.87
2022-10-24T19:37:59.684Z,46.89
2022-10-24T19:43:04.522Z,46.62
2022-10-24T19:48:08.955Z,46.13
2022-10-24T19:53:14.295Z,45.79
2022-10-24T19:58:20.347Z,46.79
2022-10-24T20:03:23.851Z,46.81
2022-10-24T20:08:27.291Z,46.41
2022-10-24T20:13:32.082Z,48.14
2022-10-24T20:18:37.377Z,47.00
2022-10-24T20:23:41.605Z,47.02
2022-10-24T20:28:48.106Z,46.90
2022-10-24T20:33:51.593Z,47.56
2022-10-24T20:38:55.043Z,47.89
2022-10-24T20:43:59.996Z,46.81
2022-10-24T20:49:03.739Z,47.74
2022-10-24T20:54:09.115Z,46.63
2022-10-24T20:59:14.582Z,47.27
2022-10-24T21:04:20.739Z,46.90
2022-10-24T21:09:24.502Z,46.94
2022-10-24T21:14:29.347Z,47.21
2022-10-24T21:19:32.798Z,47.02
2022-10-24T21:24:36.233Z,46.64
2022-10-24T21:29:40.971Z,47.06
2022-10-24T21:34:44.379Z,47.28
2022-10-24T21:39:47.727Z,47.56
2022-10-24T21:44:52.510Z,47.15
2022-10-24T21:49:55.941Z,47.37
2022-10-24T21:54:59.361Z,48.37
2022-10-24T22:00:05.135Z,47.65
2022-10-24T22:05:08.585Z,47.91
2022-10-24T22:10:11.978Z,48.03
2022-10-24T22:15:16.975Z,47.76
2022-10-24T22:20:20.384Z,47.41
2022-10-24T22:25:23.755Z,47.89
2022-10-24T22:30:28.627Z,47.96
2022-10-24T22:35:32.931Z,49.03
2022-10-24T22:40:36.943Z,49.44
2022-10-24T22:45:48.787Z,49.33
2022-10-24T22:50:53.469Z,49.91
2022-10-24T22:56:08.469Z,49.41
2022-10-24T23:01:25.378Z,50.11
2022-10-24T23:06:36.433Z,50.96
2022-10-24T23:11:40.269Z,51.44
2022-10-24T23:16:48.310Z,50.39
2022-10-24T23:21:54.494Z,50.83
2022-10-24T23:27:20.191Z,51.61
2022-10-24T23:32:27.665Z,51.39
2022-10-24T23:37:35.913Z,51.07
2022-10-24T23:42:39.909Z,51.11
2022-10-24T23:47:56.560Z,51.37
2022-10-24T23:53:06.837Z,50.76
2022-10-24T23:58:11.105Z,51.48
